createdAt,value
2022-11-29T00:01:39.318Z,6
2022-11-29T00:04:09.959Z,6
2022-11-29T00:06:40.958Z,6
2022-11-29T00:09:12.557Z,6.2
2022-11-29T00:11:43.660Z,6.1
2022-11-29T00:14:14.473Z,6.1
2022-11-29T00:16:43.726Z,6.1
2022-11-29T00:19:15.375Z,6.1
2022-11-29T00:21:46.000Z,6
2022-11-29T00:24:16.806Z,6.1
2022-11-29T00:26:47.563Z,6.1
2022-11-29T00:29:18.167Z,6.1
2022-11-29T00:31:49.035Z,6.1
2022-11-29T00:34:20.408Z,6.1
2022-11-29T00:36:50.807Z,6
2022-11-29T00:39:21.833Z,6
2022-11-29T00:41:52.878Z,6.1
2022-11-29T00:44:23.687Z,6
2022-11-29T00:46:54.707Z,6
2022-11-29T00:49:24.979Z,6
2022-11-29T00:51:57.272Z,5.9
2022-11-29T00:54:28.469Z,5.9
2022-11-29T00:56:59.169Z,6
2022-11-29T00:59:29.778Z,5.9
2022-11-29T01:02:00.191Z,5.9
2022-11-29T01:04:31.385Z,5.8
2022-11-29T01:07:02.290Z,5.8
2022-11-29T01:09:33.112Z,5.8
2022-11-29T01:12:03.702Z,5.8
2022-11-29T01:14:34.145Z,5.8
2022-11-29T01:17:05.554Z,5.7
2022-11-29T01:19:36.928Z,5.7
2022-11-29T01:22:07.752Z,5.7
2022-11-29T01:24:38.327Z,5.7
2022-11-29T01:27:09.484Z,5.8
2022-11-29T01:29:40.023Z,5.8
2022-11-29T01:32:10.640Z,5.7
2022-11-29T01:34:41.638Z,5.7
2022-11-29T01:37:12.689Z,5.8
2022-11-29T01:39:43.505Z,5.8
2022-11-29T01:42:14.619Z,5.8
2022-11-29T01:44:45.639Z,5.7
2022-11-29T01:47:16.421Z,5.7
2022-11-29T01:49:47.089Z,5.6
2022-11-29T01:52:18.705Z,5.6
2022-11-29T01:54:49.710Z,5.5
2022-11-29T01:57:20.840Z,5.5
2022-11-29T01:59:51.591Z,5.4
2022-11-29T02:02:22.953Z,5.5
2022-11-29T02:04:54.150Z,5.5
2022-11-29T02:07:25.695Z,5.4
2022-11-29T02:09:56.620Z,5.5
2022-11-29T02:12:27.289Z,5.5
2022-11-29T02:14:58.267Z,5.5
2022-11-29T02:17:29.237Z,5.5
2022-11-29T02:20:00.480Z,5.4
2022-11-29T02:22:31.016Z,5.4
2022-11-29T02:25:01.509Z,5.5
2022-11-29T02:27:32.652Z,5.5
2022-11-29T02:30:04.120Z,5.5
2022-11-29T02:32:35.297Z,5.6
2022-11-29T02:35:06.295Z,5.6
2022-11-29T02:37:37.111Z,5.6
2022-11-29T02:40:07.527Z,5.7
2022-11-29T02:42:38.320Z,5.6
2022-11-29T02:45:09.597Z,5.4
2022-11-29T02:47:40.189Z,5.4
2022-11-29T02:50:11.008Z,5.4
2022-11-29T02:52:41.871Z,5.3
2022-11-29T02:55:13.548Z,5.3
2022-11-29T02:57:44.711Z,5.4
2022-11-29T03:00:15.747Z,5.3
2022-11-29T03:02:46.957Z,5.4
2022-11-29T03:05:18.105Z,5.2
2022-11-29T03:07:48.763Z,5.3
2022-11-29T03:10:19.487Z,5.3
2022-11-29T03:12:50.193Z,5.3
2022-11-29T03:15:21.405Z,5.2
2022-11-29T03:17:52.461Z,5.3
2022-11-29T03:20:23.341Z,5.3
2022-11-29T03:22:54.568Z,5.3
2022-11-29T03:25:26.023Z,5.4
2022-11-29T03:27:57.290Z,5.5
2022-11-29T03:30:28.716Z,5.4
2022-11-29T03:32:59.201Z,5.4
2022-11-29T03:35:30.323Z,5.4
2022-11-29T03:38:00.856Z,5.4
2022-11-29T03:40:31.653Z,5.4
2022-11-29T03:43:02.698Z,5.4
2022-11-29T03:45:34.093Z,5.5
2022-11-29T03:48:04.809Z,5.4
2022-11-29T03:50:35.581Z,5.5
2022-11-29T03:53:06.923Z,5.5
2022-11-29T03:55:38.512Z,5.6
2022-11-29T03:58:09.699Z,5.5
2022-11-29T04:00:44.113Z,5.5
2022-11-29T04:03:15.045Z,5.3
2022-11-29T04:05:45.882Z,5.2
2022-11-29T04:08:17.255Z,5.3
2022-11-29T04:10:48.601Z,5.3
2022-11-29T04:13:19.544Z,5.3
2022-11-29T04:15:50.390Z,5.3
2022-11-29T04:18:20.734Z,5.2
2022-11-29T04:20:51.589Z,5.1
2022-11-29T04:23:23.785Z,5
2022-11-29T04:25:54.762Z,5
2022-11-29T04:28:25.304Z,4.9
2022-11-29T04:30:56.900Z,5
2022-11-29T04:33:28.198Z,5
2022-11-29T04:35:58.880Z,5.1
2022-11-29T04:38:30.023Z,5.1
2022-11-29T04:41:00.975Z,5.1
2022-11-29T04:43:32.366Z,5
2022-11-29T04:46:02.961Z,5.1
2022-11-29T04:48:34.584Z,5.2
2022-11-29T04:51:05.551Z,5.2
2022-11-29T04:53:36.481Z,5.3
2022-11-29T04:56:07.409Z,5.3
2022-11-29T04:58:38.509Z,5.2
2022-11-29T05:01:09.331Z,5.2
2022-11-29T05:03:40.068Z,5.3
2022-11-29T05:06:11.192Z,5.3
2022-11-29T05:08:42.107Z,5.3
2022-11-29T05:11:13.364Z,5.3
2022-11-29T05:13:44.454Z,5.3
2022-11-29T05:16:15.852Z,5.3
2022-11-29T05:18:46.890Z,5.2
2022-11-29T05:21:17.516Z,5.2
2022-11-29T05:23:48.710Z,5.2
2022-11-29T05:26:19.507Z,5.3
2022-11-29T05:28:50.306Z,5.3
2022-11-29T05:31:21.802Z,5.3
2022-11-29T05:33:52.846Z,5.3
2022-11-29T05:36:24.010Z,5.4
2022-11-29T05:38:54.886Z,5.4
2022-11-29T05:41:26.176Z,5.5
2022-11-29T05:43:57.410Z,5.5
2022-11-29T05:46:28.198Z,5.4
2022-11-29T05:48:59.301Z,5.4
2022-11-29T05:51:30.765Z,5.4
2022-11-29T05:54:02.330Z,5.4
2022-11-29T05:56:33.076Z,5.4
2022-11-29T05:59:04.451Z,5.4
2022-11-29T06:01:35.218Z,5.3
2022-11-29T06:04:09.103Z,5.4
2022-11-29T06:06:38.542Z,5.4
2022-11-29T06:09:09.722Z,5.5
2022-11-29T06:11:39.992Z,5.4
2022-11-29T06:14:11.085Z,5.4
2022-11-29T06:16:41.621Z,5.4
2022-11-29T06:19:12.384Z,5.5
2022-11-29T06:21:43.939Z,5.6
2022-11-29T06:24:14.957Z,5.7
2022-11-29T06:26:46.220Z,5.7
2022-11-29T06:29:17.569Z,5.8
2022-11-29T06:31:48.831Z,5.8
2022-11-29T06:34:19.824Z,5.7
2022-11-29T06:36:51.592Z,5.8
2022-11-29T06:39:22.147Z,5.8
2022-11-29T06:41:53.158Z,5.8
2022-11-29T06:44:24.126Z,5.8
2022-11-29T06:46:54.768Z,5.8
2022-11-29T06:49:25.667Z,6
2022-11-29T06:51:57.185Z,6
2022-11-29T06:54:28.636Z,6.1
2022-11-29T06:56:59.085Z,6.1
2022-11-29T06:59:30.240Z,6.1
2022-11-29T07:02:01.529Z,6.2
2022-11-29T07:04:32.252Z,6.3
2022-11-29T07:07:03.001Z,6.3
2022-11-29T07:09:34.210Z,6.3
2022-11-29T07:12:04.661Z,6.3
2022-11-29T07:14:35.949Z,6.3
2022-11-29T07:17:06.857Z,6.5
2022-11-29T07:19:37.892Z,6.5
2022-11-29T07:22:08.681Z,6.5
2022-11-29T07:24:39.427Z,6.6
2022-11-29T07:27:10.220Z,6.6
2022-11-29T07:29:40.858Z,6.7
2022-11-29T07:32:11.423Z,6.7
2022-11-29T07:34:41.737Z,6.7
2022-11-29T07:37:12.469Z,6.8
2022-11-29T07:39:43.744Z,6.9
2022-11-29T07:42:14.318Z,7
2022-11-29T07:44:45.691Z,7
2022-11-29T07:47:15.685Z,7
2022-11-29T07:49:46.066Z,7
2022-11-29T07:52:16.713Z,7.1
2022-11-29T07:54:47.738Z,7
2022-11-29T07:57:18.221Z,7
2022-11-29T07:59:49.063Z,7
2022-11-29T08:02:20.046Z,6.9
2022-11-29T08:04:50.389Z,7
2022-11-29T08:07:21.364Z,7.1
2022-11-29T08:09:52.304Z,7.1
2022-11-29T08:12:23.320Z,7.1
2022-11-29T08:14:53.725Z,7.2
2022-11-29T08:17:24.135Z,7
2022-11-29T08:19:54.744Z,7.2
2022-11-29T08:22:24.824Z,7.2
2022-11-29T08:24:55.658Z,7.2
2022-11-29T08:27:26.587Z,7.4
2022-11-29T08:29:57.055Z,7.5
2022-11-29T08:32:28.213Z,7.6
2022-11-29T08:34:59.118Z,7.8
2022-11-29T08:37:29.722Z,7.8
2022-11-29T08:40:00.460Z,7.8
2022-11-29T08:42:31.008Z,7.8
2022-11-29T08:45:01.289Z,7.6
2022-11-29T08:47:32.067Z,7.7
2022-11-29T08:50:02.621Z,7.6
2022-11-29T08:52:33.368Z,7.8
2022-11-29T08:55:04.449Z,7.9
2022-11-29T08:57:40.102Z,8.1
2022-11-29T09:00:06.133Z,8.1
2022-11-29T09:02:36.965Z,8.3
2022-11-29T09:05:07.648Z,8.1
2022-11-29T09:07:38.577Z,8.2
2022-11-29T09:10:08.851Z,8.1
2022-11-29T09:12:39.248Z,8.2
2022-11-29T09:15:09.622Z,8.2
2022-11-29T09:17:40.146Z,8.3
2022-11-29T09:20:10.227Z,8.2
2022-11-29T09:22:41.029Z,8.4
2022-11-29T09:25:11.341Z,8.2
2022-11-29T09:27:42.149Z,8.3
2022-11-29T09:30:12.529Z,8.4
2022-11-29T09:32:43.109Z,8.6
2022-11-29T09:35:13.875Z,8.7
2022-11-29T09:37:44.480Z,8.4
2022-11-29T09:40:15.414Z,8.3
2022-11-29T09:42:46.527Z,8.3
2022-11-29T09:45:17.297Z,8.5
2022-11-29T09:47:47.577Z,8.7
2022-11-29T09:50:18.374Z,8.7
2022-11-29T09:52:48.688Z,8.6
2022-11-29T09:55:19.069Z,8.7
2022-11-29T09:57:49.817Z,8.8
2022-11-29T10:00:21.004Z,9
2022-11-29T10:02:51.144Z,9.2
2022-11-29T10:05:22.078Z,9.3
2022-11-29T10:07:52.709Z,9.3
2022-11-29T10:10:23.082Z,9
2022-11-29T10:12:53.730Z,9.1
2022-11-29T10:15:24.152Z,8.9
2022-11-29T10:17:55.161Z,9.1
2022-11-29T10:20:25.979Z,9.1
2022-11-29T10:22:56.579Z,9.2
2022-11-29T10:25:27.397Z,9.3
2022-11-29T10:28:03.661Z,9.4
2022-11-29T10:30:34.885Z,9.5
2022-11-29T10:33:05.724Z,9.4
2022-11-29T10:35:36.183Z,9.5
2022-11-29T10:38:29.481Z,9.3
2022-11-29T10:40:37.597Z,9.2
2022-11-29T10:43:08.575Z,9.3
2022-11-29T10:45:39.327Z,9.4
2022-11-29T10:48:10.345Z,9.4
2022-11-29T10:50:40.690Z,9.4
2022-11-29T10:53:11.554Z,9.4
2022-11-29T10:55:42.497Z,9.5
2022-11-29T10:58:13.767Z,9.6
2022-11-29T11:00:44.875Z,9.7
2022-11-29T11:03:15.171Z,9.8
2022-11-29T11:05:46.087Z,9.7
2022-11-29T11:08:16.461Z,9.7
2022-11-29T11:10:51.079Z,9.7
2022-11-29T11:13:17.562Z,9.6
2022-11-29T11:15:47.938Z,9.6
2022-11-29T11:18:18.880Z,9.5
2022-11-29T11:20:49.267Z,9.5
2022-11-29T11:23:19.955Z,9.3
2022-11-29T11:25:50.373Z,9.3
2022-11-29T11:28:21.031Z,9.2
2022-11-29T11:30:51.576Z,9.3
2022-11-29T11:33:22.169Z,9.2
2022-11-29T11:35:52.977Z,9.2
2022-11-29T11:38:23.681Z,9
2022-11-29T11:40:57.968Z,8.9
2022-11-29T11:43:24.968Z,9
2022-11-29T11:45:59.617Z,8.9
2022-11-29T11:48:30.540Z,9.1
2022-11-29T11:51:03.756Z,8.9
2022-11-29T11:53:32.588Z,9
2022-11-29T11:56:02.891Z,9.1
2022-11-29T11:58:33.495Z,9.2
2022-11-29T12:01:05.422Z,9.1
2022-11-29T12:03:35.314Z,8.9
2022-11-29T12:06:05.820Z,8.9
2022-11-29T12:08:37.063Z,8.8
2022-11-29T12:11:07.834Z,8.8
2022-11-29T12:13:38.303Z,8.9
2022-11-29T12:16:10.089Z,9
2022-11-29T12:18:41.007Z,8.9
2022-11-29T12:21:11.586Z,8.9
2022-11-29T12:23:42.207Z,8.8
2022-11-29T12:26:16.213Z,8.7
2022-11-29T12:28:43.879Z,8.6
2022-11-29T12:31:14.912Z,8.7
2022-11-29T12:33:45.514Z,8.8
2022-11-29T12:36:16.187Z,8.8
2022-11-29T12:38:46.708Z,8.6
2022-11-29T12:41:16.953Z,8.6
2022-11-29T12:43:47.941Z,8.6
2022-11-29T12:46:18.579Z,8.7
2022-11-29T12:48:49.099Z,8.9
2022-11-29T12:51:20.027Z,8.8
2022-11-29T12:53:50.530Z,8.7
2022-11-29T12:56:21.242Z,8.7
2022-11-29T12:58:52.375Z,8.5
2022-11-29T13:01:23.473Z,8.5
2022-11-29T13:03:54.200Z,8.6
2022-11-29T13:06:25.130Z,8.7
2022-11-29T13:08:55.432Z,8.8
2022-11-29T13:11:26.263Z,8.6
2022-11-29T13:14:08.200Z,8.7
2022-11-29T13:16:31.212Z,8.8
2022-11-29T13:18:59.395Z,8.7
2022-11-29T13:21:29.923Z,8.7
2022-11-29T13:24:08.169Z,8.7
2022-11-29T13:26:31.398Z,8.5
2022-11-29T13:29:03.558Z,8.5
2022-11-29T13:31:34.312Z,8.6
2022-11-29T13:34:04.962Z,8.5
2022-11-29T13:36:36.653Z,8.4
2022-11-29T13:39:07.764Z,8.5
2022-11-29T13:41:39.169Z,8.5
2022-11-29T13:44:09.986Z,8.5
2022-11-29T13:46:41.071Z,8.2
2022-11-29T13:49:12.064Z,8.2
2022-11-29T13:51:43.824Z,8.2
2022-11-29T13:54:14.969Z,8.3
2022-11-29T13:56:46.829Z,8.2
2022-11-29T13:59:17.922Z,7.9
2022-11-29T14:01:49.280Z,8
2022-11-29T14:04:20.106Z,7.8
2022-11-29T14:06:51.349Z,7.9
2022-11-29T14:09:22.329Z,8
2022-11-29T14:11:53.515Z,7.8
2022-11-29T14:14:24.245Z,7.9
2022-11-29T14:16:54.955Z,8
2022-11-29T14:19:27.752Z,7.9
2022-11-29T14:21:56.861Z,8
2022-11-29T14:24:28.456Z,8
2022-11-29T14:26:59.881Z,8
2022-11-29T14:29:30.803Z,8.1
2022-11-29T14:32:02.677Z,7.9
2022-11-29T14:34:34.135Z,7.8
2022-11-29T14:37:05.319Z,7.9
2022-11-29T14:39:36.327Z,7.9
2022-11-29T14:42:07.560Z,7.8
2022-11-29T14:44:38.605Z,7.8
2022-11-29T14:47:09.725Z,7.7
2022-11-29T14:49:40.872Z,7.7
2022-11-29T14:52:12.322Z,7.6
2022-11-29T14:54:46.922Z,7.7
2022-11-29T14:57:15.467Z,7.7
2022-11-29T14:59:46.668Z,7.6
2022-11-29T15:02:17.844Z,7.5
2022-11-29T15:04:49.104Z,7.4
2022-11-29T15:07:20.764Z,7.2
2022-11-29T15:09:51.852Z,7.2
2022-11-29T15:12:23.090Z,7.2
2022-11-29T15:14:54.476Z,7.1
2022-11-29T15:17:25.681Z,7.1
2022-11-29T15:19:57.831Z,7.2
2022-11-29T15:22:29.231Z,7.1
2022-11-29T15:25:00.290Z,7.1
2022-11-29T15:27:32.167Z,7
2022-11-29T15:30:04.027Z,7
2022-11-29T15:32:36.131Z,6.9
2022-11-29T15:35:07.644Z,6.9
2022-11-29T15:37:41.990Z,7.1
2022-11-29T15:40:12.683Z,7
2022-11-29T15:42:44.048Z,7
2022-11-29T15:45:15.329Z,6.9
2022-11-29T15:47:46.502Z,7
2022-11-29T15:50:17.819Z,7.1
2022-11-29T15:52:51.039Z,6.8
2022-11-29T15:55:22.145Z,6.9
2022-11-29T15:57:53.176Z,6.9
2022-11-29T16:00:23.906Z,6.8
2022-11-29T16:02:55.419Z,6.9
2022-11-29T16:05:26.120Z,6.9
2022-11-29T16:07:57.164Z,6.7
2022-11-29T16:10:33.552Z,6.8
2022-11-29T16:13:00.303Z,6.8
2022-11-29T16:15:31.389Z,6.9
2022-11-29T16:18:02.518Z,6.8
2022-11-29T16:20:33.947Z,6.8
2022-11-29T16:23:05.055Z,6.8
2022-11-29T16:25:37.825Z,6.8
2022-11-29T16:28:12.528Z,6.8
2022-11-29T16:30:44.879Z,6.9
2022-11-29T16:33:16.377Z,6.9
2022-11-29T16:35:47.300Z,6.9
2022-11-29T16:38:18.473Z,6.9
2022-11-29T16:40:49.248Z,7
2022-11-29T16:43:20.461Z,7
2022-11-29T16:45:51.919Z,7.1
2022-11-29T16:48:23.427Z,7.1
2022-11-29T16:50:54.237Z,6.8
2022-11-29T16:53:25.341Z,6.9
2022-11-29T16:55:56.629Z,7
2022-11-29T16:58:28.310Z,7
2022-11-29T17:00:59.861Z,6.9
2022-11-29T17:03:31.288Z,6.9
2022-11-29T17:06:02.585Z,6.8
2022-11-29T17:08:34.398Z,6.9
2022-11-29T17:11:06.328Z,6.8
2022-11-29T17:13:38.238Z,6.8
2022-11-29T17:16:09.793Z,6.9
2022-11-29T17:18:41.806Z,6.8
2022-11-29T17:21:15.765Z,6.9
2022-11-29T17:23:46.848Z,6.8
2022-11-29T17:26:18.989Z,6.8
2022-11-29T17:28:50.231Z,6.9
2022-11-29T17:31:21.430Z,6.9
2022-11-29T17:33:52.455Z,7
2022-11-29T17:36:23.884Z,6.9
2022-11-29T17:38:55.185Z,7
2022-11-29T17:41:26.134Z,7.1
2022-11-29T17:43:57.520Z,6.9
2022-11-29T17:46:30.262Z,6.9
2022-11-29T17:49:02.066Z,7
2022-11-29T17:54:04.362Z,6.9
2022-11-29T17:56:35.738Z,6.8
2022-11-29T17:59:07.291Z,6.9
2022-11-29T18:01:38.793Z,7.1
2022-11-29T18:04:10.270Z,7
2022-11-29T18:06:41.468Z,6.9
2022-11-29T18:09:13.409Z,6.9
2022-11-29T18:11:48.444Z,7
2022-11-29T18:14:16.098Z,7.1
2022-11-29T18:16:46.844Z,7.1
2022-11-29T18:19:18.095Z,7.1
2022-11-29T18:21:49.169Z,7
2022-11-29T18:24:20.141Z,7
2022-11-29T18:26:51.334Z,7
2022-11-29T18:29:22.785Z,7
2022-11-29T18:31:53.907Z,7
2022-11-29T18:34:24.999Z,7
2022-11-29T18:36:57.163Z,7.1
2022-11-29T18:39:29.029Z,7
2022-11-29T18:42:00.324Z,7
2022-11-29T18:44:31.669Z,6.9
2022-11-29T18:47:02.770Z,7
2022-11-29T18:49:33.970Z,6.9
2022-11-29T18:52:04.713Z,6.9
2022-11-29T18:54:36.471Z,6.9
2022-11-29T18:57:07.711Z,6.9
2022-11-29T18:59:39.056Z,6.9
2022-11-29T19:02:10.029Z,6.8
2022-11-29T19:04:41.709Z,6.9
2022-11-29T19:07:13.476Z,6.9
2022-11-29T19:09:45.851Z,6.9
2022-11-29T19:12:17.154Z,7
2022-11-29T19:14:49.929Z,6.9
2022-11-29T19:17:19.602Z,6.8
2022-11-29T19:19:51.017Z,6.9
2022-11-29T19:22:21.811Z,6.9
2022-11-29T19:24:52.931Z,6.8
2022-11-29T19:27:23.976Z,6.9
2022-11-29T19:29:55.922Z,6.9
2022-11-29T19:32:29.100Z,6.9
2022-11-29T19:35:00.504Z,6.9
2022-11-29T19:37:32.969Z,7
2022-11-29T19:40:05.295Z,6.9
2022-11-29T19:42:38.532Z,6.9
2022-11-29T19:45:16.761Z,6.9
2022-11-29T19:47:40.639Z,6.8
2022-11-29T19:50:11.636Z,6.9
2022-11-29T19:52:43.170Z,6.9
2022-11-29T19:55:14.391Z,6.9
2022-11-29T19:57:45.899Z,7
2022-11-29T20:00:17.123Z,6.9
2022-11-29T20:02:48.824Z,7
2022-11-29T20:05:20.368Z,7
2022-11-29T20:07:51.991Z,7
2022-11-29T20:10:23.519Z,7.1
2022-11-29T20:12:54.357Z,7
2022-11-29T20:15:25.728Z,7
2022-11-29T20:17:57.079Z,7.1
2022-11-29T20:20:31.285Z,7.1
2022-11-29T20:23:02.951Z,7.1
2022-11-29T20:25:34.088Z,7.1
2022-11-29T20:28:06.436Z,6.9
2022-11-29T20:30:37.952Z,7
2022-11-29T20:33:08.960Z,7.1
2022-11-29T20:35:39.935Z,7
2022-11-29T20:38:12.097Z,7
2022-11-29T20:40:43.953Z,6.9
2022-11-29T20:43:16.640Z,6.9
2022-11-29T20:45:48.465Z,6.9
2022-11-29T20:48:19.635Z,7
2022-11-29T20:50:51.065Z,7
2022-11-29T20:53:22.184Z,7
2022-11-29T20:55:54.241Z,7.1
2022-11-29T20:58:25.533Z,7.1
2022-11-29T21:00:57.942Z,7
2022-11-29T21:03:30.676Z,7
2022-11-29T21:06:01.912Z,7
2022-11-29T21:08:33.179Z,7
2022-11-29T21:11:04.433Z,6.9
2022-11-29T21:13:36.514Z,6.9
2022-11-29T21:16:09.299Z,7
2022-11-29T21:18:40.604Z,7
2022-11-29T21:21:11.515Z,7.1
2022-11-29T21:23:42.582Z,7.1
2022-11-29T21:26:16.780Z,7
2022-11-29T21:28:49.310Z,7
2022-11-29T21:31:20.407Z,7.1
2022-11-29T21:33:51.390Z,7.2
2022-11-29T21:36:22.498Z,7.2
2022-11-29T21:38:55.161Z,7.1
2022-11-29T21:41:25.344Z,7.1
2022-11-29T21:44:12.284Z,7.1
2022-11-29T21:46:28.959Z,7.2
2022-11-29T21:49:00.301Z,7.2
2022-11-29T21:51:31.794Z,7.2
2022-11-29T21:54:02.578Z,7.1
2022-11-29T21:56:34.729Z,7.1
2022-11-29T21:59:06.262Z,7.2
2022-11-29T22:01:37.890Z,7.2
2022-11-29T22:04:08.715Z,7.1
2022-11-29T22:06:40.164Z,7.3
2022-11-29T22:09:11.276Z,7.3
2022-11-29T22:11:42.362Z,7.4
2022-11-29T22:14:13.836Z,7.3
2022-11-29T22:16:44.997Z,7.4
2022-11-29T22:19:16.120Z,7.4
2022-11-29T22:21:47.177Z,7.4
2022-11-29T22:24:18.899Z,7.4
2022-11-29T22:26:50.205Z,7.5
2022-11-29T22:29:21.400Z,7.5
2022-11-29T22:31:52.422Z,7.6
2022-11-29T22:34:23.117Z,7.5
2022-11-29T22:36:55.221Z,7.4
2022-11-29T22:39:26.970Z,7.4
2022-11-29T22:41:58.504Z,7.4
2022-11-29T22:44:29.862Z,7.4
2022-11-29T22:47:01.157Z,7.5
2022-11-29T22:49:32.793Z,7.5
2022-11-29T22:52:03.990Z,7.5
2022-11-29T22:54:35.321Z,7.5
2022-11-29T22:57:06.372Z,7.6
2022-11-29T22:59:37.620Z,7.6
2022-11-29T23:02:09.562Z,7.7
2022-11-29T23:04:40.557Z,7.7
2022-11-29T23:07:11.192Z,7.7
2022-11-29T23:09:42.372Z,7.6
2022-11-29T23:12:14.846Z,7.6
2022-11-29T23:14:49.210Z,7.7
2022-11-29T23:17:17.440Z,7.7
2022-11-29T23:19:47.929Z,7.8
2022-11-29T23:22:18.608Z,7.8
2022-11-29T23:24:49.578Z,7.7
2022-11-29T23:27:19.557Z,7.7
2022-11-29T23:29:49.503Z,7.7
2022-11-29T23:32:20.428Z,7.6
2022-11-29T23:34:51.621Z,7.7
2022-11-29T23:37:22.020Z,7.6
2022-11-29T23:39:52.562Z,7.7
2022-11-29T23:42:22.870Z,7.6
2022-11-29T23:44:54.126Z,7.7
2022-11-29T23:47:24.870Z,7.7
2022-11-29T23:49:55.425Z,7.7
2022-11-29T23:52:25.938Z,7.7
2022-11-29T23:54:56.472Z,7.7
2022-11-29T23:57:27.400Z,7.8
2022-11-29T23:59:57.739Z,7.8
